sensor_id;sensor_type;location;lat;lon;timestamp;temperature;humidity
33927;DHT22;20485;50.992;5.550;2023-05-10T00:01:04;12.70;99.90
33927;DHT22;20485;50.992;5.550;2023-05-10T00:03:30;12.70;99.90
33927;DHT22;20485;50.992;5.550;2023-05-10T00:05:56;12.80;99.90
33927;DHT22;20485;50.992;5.550;2023-05-10T00:08:22;12.70;99.90
33927;DHT22;20485;50.992;5.550;2023-05-10T00:10:48;12.80;99.90
33927;DHT22;20485;50.992;5.550;2023-05-10T00:13:13;12.80;99.90
33927;DHT22;20485;50.992;5.550;2023-05-10T00:15:39;12.80;99.90
33927;DHT22;20485;50.992;5.550;2023-05-10T00:18:05;12.70;99.90
33927;DHT22;20485;50.992;5.550;2023-05-10T00:20:31;12.70;99.90
33927;DHT22;20485;50.992;5.550;2023-05-10T00:22:56;12.70;99.90
33927;DHT22;20485;50.992;5.550;2023-05-10T00:25:22;12.70;99.90
33927;DHT22;20485;50.992;5.550;2023-05-10T00:27:47;12.70;99.90
33927;DHT22;20485;50.992;5.550;2023-05-10T00:30:13;12.70;99.90
33927;DHT22;20485;50.992;5.550;2023-05-10T00:32:39;12.70;99.90
33927;DHT22;20485;50.992;5.550;2023-05-10T00:35:05;12.70;99.90
33927;DHT22;20485;50.992;5.550;2023-05-10T00:37:31;12.70;99.90
33927;DHT22;20485;50.992;5.550;2023-05-10T00:39:58;12.70;99.90
33927;DHT22;20485;50.992;5.550;2023-05-10T00:42:23;12.70;99.90
33927;DHT22;20485;50.992;5.550;2023-05-10T00:44:49;12.70;99.90
33927;DHT22;20485;50.992;5.550;2023-05-10T00:47:15;12.70;99.90
33927;DHT22;20485;50.992;5.550;2023-05-10T00:49:42;12.70;99.90
33927;DHT22;20485;50.992;5.550;2023-05-10T00:52:09;12.70;99.90
33927;DHT22;20485;50.992;5.550;2023-05-10T00:54:35;12.70;99.90
33927;DHT22;20485;50.992;5.550;2023-05-10T00:57:00;12.70;99.90
33927;DHT22;20485;50.992;5.550;2023-05-10T00:59:26;12.70;99.90
33927;DHT22;20485;50.992;5.550;2023-05-10T01:01:53;12.70;99.90
33927;DHT22;20485;50.992;5.550;2023-05-10T01:04:18;12.60;99.90
33927;DHT22;20485;50.992;5.550;2023-05-10T01:06:47;12.60;99.90
33927;DHT22;20485;50.992;5.550;2023-05-10T01:09:12;12.60;99.90
33927;DHT22;20485;50.992;5.550;2023-05-10T01:11:39;12.60;99.90
33927;DHT22;20485;50.992;5.550;2023-05-10T01:14:06;12.60;99.90
33927;DHT22;20485;50.992;5.550;2023-05-10T01:16:36;12.60;99.90
33927;DHT22;20485;50.992;5.550;2023-05-10T01:19:04;12.60;99.90
33927;DHT22;20485;50.992;5.550;2023-05-10T01:30:05;12.60;99.90
33927;DHT22;20485;50.992;5.550;2023-05-10T01:32:40;12.60;99.90
33927;DHT22;20485;50.992;5.550;2023-05-10T01:38:11;12.60;99.90
33927;DHT22;20485;50.992;5.550;2023-05-10T01:40:40;12.60;99.90
33927;DHT22;20485;50.992;5.550;2023-05-10T01:43:28;12.50;99.90
33927;DHT22;20485;50.992;5.550;2023-05-10T01:46:03;12.50;99.90
33927;DHT22;20485;50.992;5.550;2023-05-10T01:48:38;12.50;99.90
33927;DHT22;20485;50.992;5.550;2023-05-10T01:51:06;12.50;99.90
33927;DHT22;20485;50.992;5.550;2023-05-10T01:53:33;12.40;99.90
33927;DHT22;20485;50.992;5.550;2023-05-10T01:56:01;12.40;99.90
33927;DHT22;20485;50.992;5.550;2023-05-10T01:58:32;12.40;99.90
33927;DHT22;20485;50.992;5.550;2023-05-10T02:01:02;12.40;99.90
33927;DHT22;20485;50.992;5.550;2023-05-10T02:03:31;12.30;99.90
33927;DHT22;20485;50.992;5.550;2023-05-10T02:05:57;12.40;99.90
33927;DHT22;20485;50.992;5.550;2023-05-10T02:08:24;12.40;99.90
33927;DHT22;20485;50.992;5.550;2023-05-10T02:10:54;12.30;99.90
33927;DHT22;20485;50.992;5.550;2023-05-10T02:13:21;12.30;99.90
33927;DHT22;20485;50.992;5.550;2023-05-10T02:15:51;12.30;99.90
33927;DHT22;20485;50.992;5.550;2023-05-10T02:18:18;12.30;99.90
33927;DHT22;20485;50.992;5.550;2023-05-10T02:20:45;12.30;99.90
33927;DHT22;20485;50.992;5.550;2023-05-10T02:23:13;12.30;99.90
33927;DHT22;20485;50.992;5.550;2023-05-10T02:25:39;12.30;99.90
33927;DHT22;20485;50.992;5.550;2023-05-10T02:28:07;12.30;99.90
33927;DHT22;20485;50.992;5.550;2023-05-10T02:30:34;12.30;99.90
33927;DHT22;20485;50.992;5.550;2023-05-10T02:33:01;12.30;99.90
33927;DHT22;20485;50.992;5.550;2023-05-10T02:35:27;12.30;99.90
33927;DHT22;20485;50.992;5.550;2023-05-10T02:37:54;12.30;99.90
33927;DHT22;20485;50.992;5.550;2023-05-10T02:40:21;12.40;99.90
33927;DHT22;20485;50.992;5.550;2023-05-10T02:42:48;12.30;99.90
33927;DHT22;20485;50.992;5.550;2023-05-10T02:45:19;12.20;99.90
33927;DHT22;20485;50.992;5.550;2023-05-10T02:47:45;12.20;99.90
33927;DHT22;20485;50.992;5.550;2023-05-10T02:50:11;12.20;99.90
33927;DHT22;20485;50.992;5.550;2023-05-10T02:52:44;12.20;99.90
33927;DHT22;20485;50.992;5.550;2023-05-10T02:55:12;12.30;99.90
33927;DHT22;20485;50.992;5.550;2023-05-10T02:57:46;12.20;99.90
33927;DHT22;20485;50.992;5.550;2023-05-10T03:00:14;12.20;99.90
33927;DHT22;20485;50.992;5.550;2023-05-10T03:02:40;12.20;99.90
33927;DHT22;20485;50.992;5.550;2023-05-10T03:05:06;12.20;99.90
33927;DHT22;20485;50.992;5.550;2023-05-10T03:07:33;12.20;99.90
33927;DHT22;20485;50.992;5.550;2023-05-10T03:09:59;12.20;99.90
33927;DHT22;20485;50.992;5.550;2023-05-10T03:20:29;12.10;99.90
33927;DHT22;20485;50.992;5.550;2023-05-10T03:23:02;12.10;99.90
33927;DHT22;20485;50.992;5.550;2023-05-10T03:25:29;12.10;99.90
33927;DHT22;20485;50.992;5.550;2023-05-10T03:27:56;12.10;99.90
33927;DHT22;20485;50.992;5.550;2023-05-10T03:30:22;12.10;99.90
33927;DHT22;20485;50.992;5.550;2023-05-10T03:32:49;12.10;99.90
33927;DHT22;20485;50.992;5.550;2023-05-10T03:35:15;12.10;99.90
33927;DHT22;20485;50.992;5.550;2023-05-10T03:37:41;12.10;99.90
33927;DHT22;20485;50.992;5.550;2023-05-10T03:40:07;12.10;99.90
33927;DHT22;20485;50.992;5.550;2023-05-10T03:42:32;12.10;99.90
33927;DHT22;20485;50.992;5.550;2023-05-10T03:44:58;12.10;99.90
33927;DHT22;20485;50.992;5.550;2023-05-10T03:47:24;12.10;99.90
33927;DHT22;20485;50.992;5.550;2023-05-10T03:49:49;12.20;99.90
33927;DHT22;20485;50.992;5.550;2023-05-10T03:52:15;12.10;99.90
33927;DHT22;20485;50.992;5.550;2023-05-10T03:54:41;12.20;99.90
33927;DHT22;20485;50.992;5.550;2023-05-10T03:57:06;12.10;99.90
33927;DHT22;20485;50.992;5.550;2023-05-10T03:59:32;12.20;99.90
33927;DHT22;20485;50.992;5.550;2023-05-10T04:01:58;12.20;99.90
33927;DHT22;20485;50.992;5.550;2023-05-10T04:04:23;12.10;99.90
33927;DHT22;20485;50.992;5.550;2023-05-10T04:06:49;12.10;99.90
33927;DHT22;20485;50.992;5.550;2023-05-10T04:09:15;12.10;99.90
33927;DHT22;20485;50.992;5.550;2023-05-10T04:11:42;12.10;99.90
33927;DHT22;20485;50.992;5.550;2023-05-10T04:14:09;12.10;99.90
33927;DHT22;20485;50.992;5.550;2023-05-10T04:16:35;12.10;99.90
33927;DHT22;20485;50.992;5.550;2023-05-10T04:19:01;12.10;99.90
33927;DHT22;20485;50.992;5.550;2023-05-10T04:21:27;12.10;99.90
33927;DHT22;20485;50.992;5.550;2023-05-10T04:23:52;12.10;99.90
33927;DHT22;20485;50.992;5.550;2023-05-10T04:26:18;12.10;99.90
33927;DHT22;20485;50.992;5.550;2023-05-10T04:28:45;12.10;99.90
33927;DHT22;20485;50.992;5.550;2023-05-10T04:31:10;12.10;99.90
33927;DHT22;20485;50.992;5.550;2023-05-10T04:33:37;12.00;99.90
33927;DHT22;20485;50.992;5.550;2023-05-10T04:36:03;12.10;99.90
33927;DHT22;20485;50.992;5.550;2023-05-10T04:38:29;12.20;99.90
33927;DHT22;20485;50.992;5.550;2023-05-10T04:41:06;12.20;99.90
33927;DHT22;20485;50.992;5.550;2023-05-10T04:43:32;12.20;99.90
33927;DHT22;20485;50.992;5.550;2023-05-10T04:45:58;12.20;99.90
33927;DHT22;20485;50.992;5.550;2023-05-10T04:48:24;12.20;99.90
33927;DHT22;20485;50.992;5.550;2023-05-10T04:50:49;12.30;99.90
33927;DHT22;20485;50.992;5.550;2023-05-10T04:53:15;12.20;99.90
33927;DHT22;20485;50.992;5.550;2023-05-10T04:55:41;12.30;99.90
33927;DHT22;20485;50.992;5.550;2023-05-10T04:58:06;12.30;99.90
33927;DHT22;20485;50.992;5.550;2023-05-10T05:00:33;12.30;99.90
33927;DHT22;20485;50.992;5.550;2023-05-10T05:02:59;12.30;99.90
33927;DHT22;20485;50.992;5.550;2023-05-10T05:05:25;12.40;99.90
33927;DHT22;20485;50.992;5.550;2023-05-10T05:07:50;12.40;99.90
33927;DHT22;20485;50.992;5.550;2023-05-10T05:10:16;12.40;99.90
33927;DHT22;20485;50.992;5.550;2023-05-10T05:12:42;12.40;99.90
33927;DHT22;20485;50.992;5.550;2023-05-10T05:15:08;12.40;99.90
33927;DHT22;20485;50.992;5.550;2023-05-10T05:17:35;12.50;99.90
33927;DHT22;20485;50.992;5.550;2023-05-10T05:20:01;12.50;99.90
33927;DHT22;20485;50.992;5.550;2023-05-10T05:22:27;12.50;99.90
33927;DHT22;20485;50.992;5.550;2023-05-10T05:24:54;12.30;99.90
33927;DHT22;20485;50.992;5.550;2023-05-10T05:27:20;12.30;99.90
33927;DHT22;20485;50.992;5.550;2023-05-10T05:29:53;12.30;99.90
33927;DHT22;20485;50.992;5.550;2023-05-10T05:32:19;12.30;99.90
33927;DHT22;20485;50.992;5.550;2023-05-10T05:34:45;12.20;99.90
33927;DHT22;20485;50.992;5.550;2023-05-10T05:37:15;12.20;99.90
33927;DHT22;20485;50.992;5.550;2023-05-10T05:39:41;12.10;99.90
33927;DHT22;20485;50.992;5.550;2023-05-10T05:42:08;12.20;99.90
33927;DHT22;20485;50.992;5.550;2023-05-10T05:44:34;12.20;99.90
33927;DHT22;20485;50.992;5.550;2023-05-10T05:47:00;12.20;99.90
33927;DHT22;20485;50.992;5.550;2023-05-10T05:49:25;12.20;99.90
33927;DHT22;20485;50.992;5.550;2023-05-10T05:51:51;12.20;99.90
33927;DHT22;20485;50.992;5.550;2023-05-10T05:54:17;12.10;99.90
33927;DHT22;20485;50.992;5.550;2023-05-10T05:56:43;12.10;99.90
33927;DHT22;20485;50.992;5.550;2023-05-10T05:59:12;12.10;99.90
33927;DHT22;20485;50.992;5.550;2023-05-10T06:01:38;12.00;99.90
33927;DHT22;20485;50.992;5.550;2023-05-10T06:04:03;12.00;99.90
33927;DHT22;20485;50.992;5.550;2023-05-10T06:06:29;12.00;99.90
33927;DHT22;20485;50.992;5.550;2023-05-10T06:08:55;12.00;99.90
33927;DHT22;20485;50.992;5.550;2023-05-10T06:11:24;12.00;99.90
33927;DHT22;20485;50.992;5.550;2023-05-10T06:13:50;12.00;99.90
33927;DHT22;20485;50.992;5.550;2023-05-10T06:16:16;12.00;99.90
33927;DHT22;20485;50.992;5.550;2023-05-10T06:18:43;12.10;99.90
33927;DHT22;20485;50.992;5.550;2023-05-10T06:21:08;12.20;99.90
33927;DHT22;20485;50.992;5.550;2023-05-10T06:23:34;12.20;99.90
33927;DHT22;20485;50.992;5.550;2023-05-10T06:26:01;12.30;99.90
33927;DHT22;20485;50.992;5.550;2023-05-10T06:28:26;12.30;99.90
33927;DHT22;20485;50.992;5.550;2023-05-10T06:30:52;12.50;99.90
33927;DHT22;20485;50.992;5.550;2023-05-10T06:33:17;12.60;99.90
33927;DHT22;20485;50.992;5.550;2023-05-10T06:35:43;12.60;99.90
33927;DHT22;20485;50.992;5.550;2023-05-10T06:38:09;12.60;99.90
33927;DHT22;20485;50.992;5.550;2023-05-10T06:40:35;12.70;99.90
33927;DHT22;20485;50.992;5.550;2023-05-10T06:43:01;12.80;99.90
33927;DHT22;20485;50.992;5.550;2023-05-10T06:45:27;12.90;99.90
33927;DHT22;20485;50.992;5.550;2023-05-10T06:47:52;12.80;99.90
33927;DHT22;20485;50.992;5.550;2023-05-10T06:50:18;12.80;99.90
33927;DHT22;20485;50.992;5.550;2023-05-10T06:52:44;12.80;99.90
33927;DHT22;20485;50.992;5.550;2023-05-10T06:55:09;12.90;99.90
33927;DHT22;20485;50.992;5.550;2023-05-10T06:57:35;12.90;99.90
33927;DHT22;20485;50.992;5.550;2023-05-10T07:00:02;13.00;99.90
33927;DHT22;20485;50.992;5.550;2023-05-10T07:02:29;13.00;99.90
33927;DHT22;20485;50.992;5.550;2023-05-10T07:04:54;13.00;99.90
33927;DHT22;20485;50.992;5.550;2023-05-10T07:07:20;12.90;99.90
33927;DHT22;20485;50.992;5.550;2023-05-10T07:09:46;12.90;99.90
33927;DHT22;20485;50.992;5.550;2023-05-10T07:12:12;12.90;99.90
33927;DHT22;20485;50.992;5.550;2023-05-10T07:14:37;12.90;99.90
33927;DHT22;20485;50.992;5.550;2023-05-10T07:17:03;12.90;99.90
33927;DHT22;20485;50.992;5.550;2023-05-10T07:19:29;12.90;99.90
33927;DHT22;20485;50.992;5.550;2023-05-10T07:21:55;12.90;99.90
33927;DHT22;20485;50.992;5.550;2023-05-10T07:24:21;12.90;99.90
33927;DHT22;20485;50.992;5.550;2023-05-10T07:26:46;12.90;99.90
33927;DHT22;20485;50.992;5.550;2023-05-10T07:29:12;12.90;99.90
33927;DHT22;20485;50.992;5.550;2023-05-10T07:31:38;12.90;99.90
33927;DHT22;20485;50.992;5.550;2023-05-10T07:34:03;12.80;99.90
33927;DHT22;20485;50.992;5.550;2023-05-10T07:36:29;12.80;99.90
33927;DHT22;20485;50.992;5.550;2023-05-10T07:38:54;12.90;99.90
33927;DHT22;20485;50.992;5.550;2023-05-10T07:41:21;12.80;99.90
33927;DHT22;20485;50.992;5.550;2023-05-10T07:43:47;12.90;99.90
33927;DHT22;20485;50.992;5.550;2023-05-10T07:46:13;12.80;99.90
33927;DHT22;20485;50.992;5.550;2023-05-10T07:48:39;12.80;99.90
33927;DHT22;20485;50.992;5.550;2023-05-10T07:51:04;12.80;99.90
33927;DHT22;20485;50.992;5.550;2023-05-10T07:53:31;12.80;99.90
33927;DHT22;20485;50.992;5.550;2023-05-10T07:55:58;12.90;99.90
33927;DHT22;20485;50.992;5.550;2023-05-10T07:58:24;12.90;99.90
33927;DHT22;20485;50.992;5.550;2023-05-10T08:00:50;13.00;99.90
33927;DHT22;20485;50.992;5.550;2023-05-10T08:03:16;13.10;99.90
33927;DHT22;20485;50.992;5.550;2023-05-10T08:05:42;13.10;99.90
33927;DHT22;20485;50.992;5.550;2023-05-10T08:08:07;13.10;99.90
33927;DHT22;20485;50.992;5.550;2023-05-10T08:10:33;13.10;99.90
33927;DHT22;20485;50.992;5.550;2023-05-10T08:12:58;13.10;99.90
33927;DHT22;20485;50.992;5.550;2023-05-10T08:15:25;13.10;99.90
33927;DHT22;20485;50.992;5.550;2023-05-10T08:17:51;13.20;99.90
33927;DHT22;20485;50.992;5.550;2023-05-10T08:20:17;13.10;99.90
33927;DHT22;20485;50.992;5.550;2023-05-10T08:22:45;13.20;99.90
33927;DHT22;20485;50.992;5.550;2023-05-10T08:25:11;13.20;99.90
33927;DHT22;20485;50.992;5.550;2023-05-10T08:27:36;13.20;99.90
33927;DHT22;20485;50.992;5.550;2023-05-10T08:30:02;13.30;99.90
33927;DHT22;20485;50.992;5.550;2023-05-10T08:32:28;13.40;99.90
33927;DHT22;20485;50.992;5.550;2023-05-10T08:34:54;13.40;99.90
33927;DHT22;20485;50.992;5.550;2023-05-10T08:37:20;13.50;99.90
33927;DHT22;20485;50.992;5.550;2023-05-10T08:39:46;13.50;99.90
33927;DHT22;20485;50.992;5.550;2023-05-10T08:42:16;13.60;99.90
33927;DHT22;20485;50.992;5.550;2023-05-10T08:44:45;13.80;99.90
33927;DHT22;20485;50.992;5.550;2023-05-10T08:47:13;13.90;99.90
33927;DHT22;20485;50.992;5.550;2023-05-10T08:49:41;14.00;99.90
33927;DHT22;20485;50.992;5.550;2023-05-10T08:52:07;14.00;99.90
33927;DHT22;20485;50.992;5.550;2023-05-10T08:54:33;14.00;99.90
33927;DHT22;20485;50.992;5.550;2023-05-10T08:56:59;13.90;99.90
33927;DHT22;20485;50.992;5.550;2023-05-10T08:59:25;13.80;99.90
33927;DHT22;20485;50.992;5.550;2023-05-10T09:01:51;13.80;99.90
33927;DHT22;20485;50.992;5.550;2023-05-10T09:04:19;14.00;99.90
33927;DHT22;20485;50.992;5.550;2023-05-10T09:06:45;13.90;99.90
33927;DHT22;20485;50.992;5.550;2023-05-10T09:09:12;13.90;99.90
33927;DHT22;20485;50.992;5.550;2023-05-10T09:11:38;13.80;99.90
33927;DHT22;20485;50.992;5.550;2023-05-10T09:14:04;13.90;99.90
33927;DHT22;20485;50.992;5.550;2023-05-10T09:16:29;13.80;99.90
33927;DHT22;20485;50.992;5.550;2023-05-10T09:18:55;13.80;99.90
33927;DHT22;20485;50.992;5.550;2023-05-10T09:21:21;13.90;99.90
33927;DHT22;20485;50.992;5.550;2023-05-10T09:23:48;13.90;99.90
33927;DHT22;20485;50.992;5.550;2023-05-10T09:26:15;13.80;99.90
33927;DHT22;20485;50.992;5.550;2023-05-10T09:31:16;13.80;99.90
33927;DHT22;20485;50.992;5.550;2023-05-10T09:33:48;13.70;99.90
33927;DHT22;20485;50.992;5.550;2023-05-10T09:36:15;13.80;99.90
33927;DHT22;20485;50.992;5.550;2023-05-10T09:38:51;14.00;99.90
33927;DHT22;20485;50.992;5.550;2023-05-10T09:41:23;14.00;99.90
33927;DHT22;20485;50.992;5.550;2023-05-10T09:43:52;13.80;99.90
33927;DHT22;20485;50.992;5.550;2023-05-10T09:46:20;13.90;99.90
33927;DHT22;20485;50.992;5.550;2023-05-10T09:48:47;13.90;99.90
33927;DHT22;20485;50.992;5.550;2023-05-10T09:51:24;14.00;99.90
33927;DHT22;20485;50.992;5.550;2023-05-10T09:54:12;14.00;99.90
33927;DHT22;20485;50.992;5.550;2023-05-10T09:56:39;14.10;99.90
33927;DHT22;20485;50.992;5.550;2023-05-10T09:59:07;14.20;99.90
33927;DHT22;20485;50.992;5.550;2023-05-10T10:01:37;14.30;99.90
33927;DHT22;20485;50.992;5.550;2023-05-10T10:04:04;14.40;99.90
33927;DHT22;20485;50.992;5.550;2023-05-10T10:06:38;14.50;99.90
33927;DHT22;20485;50.992;5.550;2023-05-10T10:09:04;14.60;99.90
33927;DHT22;20485;50.992;5.550;2023-05-10T10:11:31;14.60;99.90
33927;DHT22;20485;50.992;5.550;2023-05-10T10:13:56;14.70;99.90
33927;DHT22;20485;50.992;5.550;2023-05-10T10:16:22;14.70;99.90
33927;DHT22;20485;50.992;5.550;2023-05-10T10:18:49;14.80;99.90
33927;DHT22;20485;50.992;5.550;2023-05-10T10:21:15;14.90;99.90
33927;DHT22;20485;50.992;5.550;2023-05-10T10:23:42;14.90;99.90
33927;DHT22;20485;50.992;5.550;2023-05-10T10:26:09;14.70;99.90
33927;DHT22;20485;50.992;5.550;2023-05-10T10:28:56;14.60;99.90
33927;DHT22;20485;50.992;5.550;2023-05-10T10:31:40;14.60;99.90
33927;DHT22;20485;50.992;5.550;2023-05-10T10:34:17;14.70;99.90
33927;DHT22;20485;50.992;5.550;2023-05-10T10:36:47;14.60;99.90
33927;DHT22;20485;50.992;5.550;2023-05-10T10:39:13;14.80;99.90
33927;DHT22;20485;50.992;5.550;2023-05-10T10:41:49;14.70;99.90
33927;DHT22;20485;50.992;5.550;2023-05-10T10:44:26;14.70;99.90
33927;DHT22;20485;50.992;5.550;2023-05-10T10:52:25;14.60;99.90
33927;DHT22;20485;50.992;5.550;2023-05-10T10:55:02;14.80;99.90
33927;DHT22;20485;50.992;5.550;2023-05-10T10:57:31;14.80;99.90
33927;DHT22;20485;50.992;5.550;2023-05-10T11:00:22;14.80;99.90
33927;DHT22;20485;50.992;5.550;2023-05-10T11:02:51;14.70;99.90
33927;DHT22;20485;50.992;5.550;2023-05-10T11:07:58;14.90;99.90
33927;DHT22;20485;50.992;5.550;2023-05-10T11:10:25;14.90;99.90
33927;DHT22;20485;50.992;5.550;2023-05-10T11:13:05;15.10;99.90
33927;DHT22;20485;50.992;5.550;2023-05-10T11:15:39;15.10;99.90
33927;DHT22;20485;50.992;5.550;2023-05-10T11:18:28;15.30;99.90
33927;DHT22;20485;50.992;5.550;2023-05-10T11:21:01;15.40;99.90
33927;DHT22;20485;50.992;5.550;2023-05-10T11:26:12;15.60;99.90
33927;DHT22;20485;50.992;5.550;2023-05-10T11:28:47;15.80;99.90
33927;DHT22;20485;50.992;5.550;2023-05-10T11:31:17;15.80;99.90
33927;DHT22;20485;50.992;5.550;2023-05-10T11:33:44;15.90;99.90
33927;DHT22;20485;50.992;5.550;2023-05-10T11:36:18;15.90;99.90
33927;DHT22;20485;50.992;5.550;2023-05-10T11:38:45;15.90;99.90
33927;DHT22;20485;50.992;5.550;2023-05-10T11:41:11;16.00;99.90
33927;DHT22;20485;50.992;5.550;2023-05-10T11:43:41;15.90;99.90
33927;DHT22;20485;50.992;5.550;2023-05-10T11:46:09;15.40;99.90
33927;DHT22;20485;50.992;5.550;2023-05-10T11:48:36;15.30;99.90
33927;DHT22;20485;50.992;5.550;2023-05-10T11:51:02;15.20;99.90
33927;DHT22;20485;50.992;5.550;2023-05-10T11:53:30;15.30;99.90
33927;DHT22;20485;50.992;5.550;2023-05-10T11:56:11;15.30;99.90
33927;DHT22;20485;50.992;5.550;2023-05-10T11:58:38;15.40;99.90
33927;DHT22;20485;50.992;5.550;2023-05-10T12:01:05;15.30;99.90
33927;DHT22;20485;50.992;5.550;2023-05-10T12:03:31;15.30;99.90
33927;DHT22;20485;50.992;5.550;2023-05-10T12:05:58;15.20;99.90
33927;DHT22;20485;50.992;5.550;2023-05-10T12:08:25;15.50;99.90
33927;DHT22;20485;50.992;5.550;2023-05-10T12:10:52;15.60;99.90
33927;DHT22;20485;50.992;5.550;2023-05-10T12:13:19;15.70;99.90
33927;DHT22;20485;50.992;5.550;2023-05-10T12:15:46;15.70;99.90
33927;DHT22;20485;50.992;5.550;2023-05-10T12:18:13;15.70;99.90
33927;DHT22;20485;50.992;5.550;2023-05-10T12:20:40;15.90;99.90
33927;DHT22;20485;50.992;5.550;2023-05-10T12:23:09;15.90;99.90
33927;DHT22;20485;50.992;5.550;2023-05-10T12:25:36;16.00;99.90
33927;DHT22;20485;50.992;5.550;2023-05-10T12:28:04;16.20;99.90
33927;DHT22;20485;50.992;5.550;2023-05-10T12:30:32;16.20;99.90
33927;DHT22;20485;50.992;5.550;2023-05-10T12:35:31;16.20;99.90
33927;DHT22;20485;50.992;5.550;2023-05-10T12:37:57;16.10;99.90
33927;DHT22;20485;50.992;5.550;2023-05-10T12:40:23;16.30;99.90
33927;DHT22;20485;50.992;5.550;2023-05-10T12:42:48;16.40;99.90
33927;DHT22;20485;50.992;5.550;2023-05-10T12:45:14;16.30;99.90
33927;DHT22;20485;50.992;5.550;2023-05-10T12:47:40;16.10;99.90
33927;DHT22;20485;50.992;5.550;2023-05-10T12:50:06;16.10;99.90
33927;DHT22;20485;50.992;5.550;2023-05-10T12:52:32;16.10;99.90
33927;DHT22;20485;50.992;5.550;2023-05-10T12:54:59;16.20;99.90
33927;DHT22;20485;50.992;5.550;2023-05-10T12:57:25;16.20;99.90
33927;DHT22;20485;50.992;5.550;2023-05-10T12:59:51;16.20;99.90
33927;DHT22;20485;50.992;5.550;2023-05-10T13:02:16;16.30;99.90
33927;DHT22;20485;50.992;5.550;2023-05-10T13:04:46;16.40;99.90
33927;DHT22;20485;50.992;5.550;2023-05-10T13:07:12;16.70;99.90
33927;DHT22;20485;50.992;5.550;2023-05-10T13:09:38;16.80;99.90
33927;DHT22;20485;50.992;5.550;2023-05-10T13:12:03;16.70;99.90
33927;DHT22;20485;50.992;5.550;2023-05-10T13:14:29;16.60;99.90
33927;DHT22;20485;50.992;5.550;2023-05-10T13:16:55;16.60;99.90
33927;DHT22;20485;50.992;5.550;2023-05-10T13:19:21;16.70;99.90
33927;DHT22;20485;50.992;5.550;2023-05-10T13:21:46;16.50;99.90
33927;DHT22;20485;50.992;5.550;2023-05-10T13:24:12;16.40;99.90
33927;DHT22;20485;50.992;5.550;2023-05-10T13:26:42;16.40;99.90
33927;DHT22;20485;50.992;5.550;2023-05-10T13:29:08;16.40;99.90
33927;DHT22;20485;50.992;5.550;2023-05-10T13:31:34;16.40;99.90
33927;DHT22;20485;50.992;5.550;2023-05-10T13:34:01;16.30;99.90
33927;DHT22;20485;50.992;5.550;2023-05-10T13:36:28;16.20;99.90
33927;DHT22;20485;50.992;5.550;2023-05-10T13:38:53;16.20;99.90
33927;DHT22;20485;50.992;5.550;2023-05-10T13:41:19;16.30;99.90
33927;DHT22;20485;50.992;5.550;2023-05-10T13:43:44;16.30;99.90
33927;DHT22;20485;50.992;5.550;2023-05-10T13:46:10;16.40;99.90
33927;DHT22;20485;50.992;5.550;2023-05-10T13:48:36;16.40;99.90
33927;DHT22;20485;50.992;5.550;2023-05-10T13:51:04;16.30;99.90
33927;DHT22;20485;50.992;5.550;2023-05-10T13:53:30;16.20;99.90
33927;DHT22;20485;50.992;5.550;2023-05-10T13:55:56;16.20;99.90
33927;DHT22;20485;50.992;5.550;2023-05-10T13:58:21;16.20;99.90
33927;DHT22;20485;50.992;5.550;2023-05-10T14:00:47;16.30;99.90
33927;DHT22;20485;50.992;5.550;2023-05-10T14:03:13;16.30;99.90
33927;DHT22;20485;50.992;5.550;2023-05-10T14:05:38;16.20;99.90
33927;DHT22;20485;50.992;5.550;2023-05-10T14:08:04;16.30;99.90
33927;DHT22;20485;50.992;5.550;2023-05-10T14:10:30;16.40;99.90
33927;DHT22;20485;50.992;5.550;2023-05-10T14:12:55;16.30;99.90
33927;DHT22;20485;50.992;5.550;2023-05-10T14:15:21;16.20;99.90
33927;DHT22;20485;50.992;5.550;2023-05-10T14:17:47;16.10;99.90
33927;DHT22;20485;50.992;5.550;2023-05-10T14:20:50;16.20;99.90
33927;DHT22;20485;50.992;5.550;2023-05-10T14:23:16;16.10;99.90
33927;DHT22;20485;50.992;5.550;2023-05-10T14:25:41;16.00;99.90
33927;DHT22;20485;50.992;5.550;2023-05-10T14:28:07;15.90;99.90
33927;DHT22;20485;50.992;5.550;2023-05-10T14:30:33;15.90;99.90
33927;DHT22;20485;50.992;5.550;2023-05-10T14:33:02;16.00;99.90
33927;DHT22;20485;50.992;5.550;2023-05-10T14:35:28;16.10;99.90
33927;DHT22;20485;50.992;5.550;2023-05-10T14:37:56;16.10;99.90
33927;DHT22;20485;50.992;5.550;2023-05-10T14:40:22;16.10;99.90
33927;DHT22;20485;50.992;5.550;2023-05-10T14:42:48;16.20;99.90
33927;DHT22;20485;50.992;5.550;2023-05-10T14:45:13;16.00;99.90
33927;DHT22;20485;50.992;5.550;2023-05-10T14:47:39;16.10;99.90
33927;DHT22;20485;50.992;5.550;2023-05-10T14:50:05;16.10;99.90
33927;DHT22;20485;50.992;5.550;2023-05-10T14:52:31;16.00;99.90
33927;DHT22;20485;50.992;5.550;2023-05-10T14:54:56;16.00;99.90
33927;DHT22;20485;50.992;5.550;2023-05-10T14:57:24;16.10;99.90
33927;DHT22;20485;50.992;5.550;2023-05-10T14:59:50;16.00;99.90
33927;DHT22;20485;50.992;5.550;2023-05-10T15:02:15;16.00;99.90
33927;DHT22;20485;50.992;5.550;2023-05-10T15:04:41;16.00;99.90
33927;DHT22;20485;50.992;5.550;2023-05-10T15:07:07;15.80;99.90
33927;DHT22;20485;50.992;5.550;2023-05-10T15:09:32;15.70;99.90
33927;DHT22;20485;50.992;5.550;2023-05-10T15:11:58;15.70;99.90
33927;DHT22;20485;50.992;5.550;2023-05-10T15:14:24;15.90;99.90
33927;DHT22;20485;50.992;5.550;2023-05-10T15:16:50;16.00;99.90
33927;DHT22;20485;50.992;5.550;2023-05-10T15:19:15;16.00;99.90
33927;DHT22;20485;50.992;5.550;2023-05-10T15:21:41;16.00;99.90
33927;DHT22;20485;50.992;5.550;2023-05-10T15:24:09;16.00;99.90
33927;DHT22;20485;50.992;5.550;2023-05-10T15:26:35;16.10;99.90
33927;DHT22;20485;50.992;5.550;2023-05-10T15:29:00;16.20;99.90
33927;DHT22;20485;50.992;5.550;2023-05-10T15:31:26;16.20;99.90
33927;DHT22;20485;50.992;5.550;2023-05-10T15:33:56;16.40;99.90
33927;DHT22;20485;50.992;5.550;2023-05-10T15:36:22;16.50;99.90
33927;DHT22;20485;50.992;5.550;2023-05-10T15:38:48;16.50;99.90
33927;DHT22;20485;50.992;5.550;2023-05-10T15:41:14;16.60;99.90
33927;DHT22;20485;50.992;5.550;2023-05-10T15:43:40;16.50;99.90
33927;DHT22;20485;50.992;5.550;2023-05-10T15:46:06;16.60;99.90
33927;DHT22;20485;50.992;5.550;2023-05-10T15:48:31;16.60;99.90
33927;DHT22;20485;50.992;5.550;2023-05-10T15:50:57;16.50;99.90
33927;DHT22;20485;50.992;5.550;2023-05-10T15:53:23;16.40;99.90
33927;DHT22;20485;50.992;5.550;2023-05-10T15:55:50;16.50;99.90
33927;DHT22;20485;50.992;5.550;2023-05-10T15:58:16;16.50;99.90
33927;DHT22;20485;50.992;5.550;2023-05-10T16:00:41;16.60;99.90
33927;DHT22;20485;50.992;5.550;2023-05-10T16:03:07;16.60;99.90
33927;DHT22;20485;50.992;5.550;2023-05-10T16:05:33;16.70;99.90